Time;durP1;ratioP1;P1;durP2;ratioP2;P2;SDS_P1;SDS_P2;PMS_P1;PMS_P2;Temp;Humidity;BMP_temperature;BMP_pressure;BME280_temperature;BME280_humidity;BME280_pressure;Samples;Min_cycle;Max_cycle;Signal;HPM_P1;HPM_P2
2022/05/24 00:00:31;;;;;;;0.70;0.70;;;;;;;;;;5092043;28;20220;-57
2022/05/24 00:03:20;;;;;;;0.70;0.70;;;;;;;;;;5091531;28;20220;-58
2022/05/24 00:06:07;;;;;;;0.70;0.70;;;;;;;;;;5090726;28;20205;-57
2022/05/24 00:08:54;;;;;;;0.67;0.67;;;;;;;;;;5085869;28;20209;-57
2022/05/24 00:11:41;;;;;;;0.80;0.80;;;;;;;;;;5088266;28;20206;-56
2022/05/24 00:17:33;;;;;;;1.27;0.60;;;;;;;;;;5088947;28;20314;-57
2022/05/24 00:20:22;;;;;;;0.90;0.90;;;;;;;;;;5090774;28;20237;-57
2022/05/24 00:23:10;;;;;;;1.40;0.80;;;;;;;;;;5094212;28;20324;-60
2022/05/24 00:26:00;;;;;;;0.80;0.80;;;;;;;;;;5095381;28;20208;-57
2022/05/24 00:28:47;;;;;;;0.77;0.77;;;;;;;;;;5094226;28;20235;-57
2022/05/24 00:31:34;;;;;;;0.80;0.80;;;;;;;;;;5087196;28;20291;-57
2022/05/24 00:34:21;;;;;;;0.70;0.70;;;;;;;;;;5089151;28;20292;-58
2022/05/24 00:37:09;;;;;;;0.80;0.80;;;;;;;;;;5087169;28;20803;-57
2022/05/24 00:39:56;;;;;;;0.70;0.70;;;;;;;;;;5087666;28;20217;-58
2022/05/24 00:42:44;;;;;;;0.70;0.70;;;;;;;;;;5086548;28;20296;-57
2022/05/24 00:45:36;;;;;;;3.00;0.80;;;;;;;;;;5085115;28;20214;-57
2022/05/24 00:48:28;;;;;;;1.33;0.63;;;;;;;;;;5087182;28;20220;-57
2022/05/24 00:51:21;;;;;;;0.80;0.80;;;;;;;;;;5091232;28;20295;-58
2022/05/24 00:54:09;;;;;;;1.33;1.00;;;;;;;;;;5093469;28;20315;-56
2022/05/24 00:56:59;;;;;;;1.07;0.73;;;;;;;;;;5095331;28;20776;-57
2022/05/24 00:59:50;;;;;;;0.73;0.70;;;;;;;;;;5086764;28;20292;-57
2022/05/24 01:02:38;;;;;;;0.63;0.63;;;;;;;;;;5097074;28;20621;-59
2022/05/24 01:05:29;;;;;;;1.30;0.70;;;;;;;;;;5095113;28;20215;-57
2022/05/24 01:08:16;;;;;;;0.90;0.90;;;;;;;;;;5087228;28;20279;-58
2022/05/24 01:11:06;;;;;;;1.23;0.80;;;;;;;;;;5085277;28;21061;-57
2022/05/24 01:13:56;;;;;;;0.73;0.73;;;;;;;;;;5088819;28;20296;-58
2022/05/24 01:16:43;;;;;;;0.53;0.53;;;;;;;;;;5085322;28;20251;-57
2022/05/24 01:19:36;;;;;;;0.73;0.73;;;;;;;;;;5086885;28;20208;-57
2022/05/24 01:22:52;;;;;;;0.70;0.70;;;;;;;;;;5093166;28;20203;-57
2022/05/24 01:25:49;;;;;;;1.50;0.60;;;;;;;;;;5096944;28;20206;-57
2022/05/24 01:28:41;;;;;;;1.00;1.00;;;;;;;;;;5095303;28;20214;-57
2022/05/24 01:36:09;;;;;;;1.00;0.90;;;;;;;;;;5096453;28;20290;-57
2022/05/24 01:37:42;;;;;;;0.60;0.60;;;;;;;;;;5102447;28;20223;-58
2022/05/24 01:40:30;;;;;;;0.73;0.70;;;;;;;;;;5092193;28;20663;-59
2022/05/24 01:43:18;;;;;;;0.83;0.70;;;;;;;;;;5093706;28;20285;-57
2022/05/24 01:46:11;;;;;;;1.80;0.80;;;;;;;;;;5098412;28;20318;-58
2022/05/24 01:49:01;;;;;;;0.70;0.70;;;;;;;;;;5093231;28;20216;-57
2022/05/24 01:51:54;;;;;;;0.70;0.70;;;;;;;;;;5088980;28;20212;-58
2022/05/24 01:54:46;;;;;;;1.00;0.90;;;;;;;;;;5089072;28;20756;-57
2022/05/24 01:57:37;;;;;;;0.67;0.67;;;;;;;;;;5083827;28;20235;-56
2022/05/24 02:00:24;;;;;;;0.70;0.70;;;;;;;;;;5093519;28;20286;-56
2022/05/24 02:03:13;;;;;;;0.80;0.80;;;;;;;;;;5095391;28;20206;-57
2022/05/24 02:06:00;;;;;;;0.90;0.90;;;;;;;;;;5098354;28;20684;-57
2022/05/24 02:08:47;;;;;;;0.80;0.80;;;;;;;;;;5098797;28;20280;-57
2022/05/24 02:11:35;;;;;;;0.90;0.90;;;;;;;;;;5095437;28;20296;-57
2022/05/24 02:14:25;;;;;;;0.83;0.83;;;;;;;;;;5095812;28;20289;-57
2022/05/24 02:17:15;;;;;;;1.03;0.90;;;;;;;;;;5087898;28;20683;-57
2022/05/24 02:20:05;;;;;;;1.83;1.00;;;;;;;;;;5089525;28;20964;-57
2022/05/24 02:22:52;;;;;;;0.97;0.93;;;;;;;;;;5090455;28;20606;-57
2022/05/24 02:25:42;;;;;;;0.77;0.77;;;;;;;;;;5089496;28;20647;-58
2022/05/24 02:28:30;;;;;;;0.90;0.90;;;;;;;;;;5088984;28;20208;-56
2022/05/24 02:31:19;;;;;;;1.00;1.00;;;;;;;;;;5095135;28;20206;-57
2022/05/24 02:34:06;;;;;;;0.80;0.80;;;;;;;;;;5093431;28;20277;-58
2022/05/24 02:36:54;;;;;;;1.00;1.00;;;;;;;;;;5096269;28;20308;-57
2022/05/24 02:42:46;;;;;;;0.70;0.70;;;;;;;;;;5093133;28;20208;-57
2022/05/24 02:45:33;;;;;;;0.80;0.80;;;;;;;;;;5099315;28;20725;-57
2022/05/24 02:48:20;;;;;;;0.90;0.90;;;;;;;;;;5083410;28;20521;-58
2022/05/24 02:51:10;;;;;;;1.17;1.17;;;;;;;;;;5090055;28;20287;-57
2022/05/24 02:53:58;;;;;;;0.93;0.93;;;;;;;;;;5092790;28;20644;-57
2022/05/24 02:56:45;;;;;;;0.90;0.90;;;;;;;;;;5090032;28;20333;-57
2022/05/24 02:59:33;;;;;;;1.70;0.83;;;;;;;;;;5089204;28;20208;-57
2022/05/24 03:02:20;;;;;;;1.20;1.20;;;;;;;;;;5088202;28;20592;-57
2022/05/24 03:05:10;;;;;;;0.77;0.77;;;;;;;;;;5088869;28;20300;-57
2022/05/24 03:11:02;;;;;;;1.10;1.10;;;;;;;;;;5098601;28;20213;-57
2022/05/24 03:16:54;;;;;;;0.93;0.93;;;;;;;;;;5094734;28;20671;-58
2022/05/24 03:19:41;;;;;;;0.77;0.77;;;;;;;;;;5091458;28;20694;-57
2022/05/24 03:22:28;;;;;;;1.13;1.07;;;;;;;;;;5090728;28;20216;-57
2022/05/24 03:25:15;;;;;;;1.00;1.00;;;;;;;;;;5092450;28;20212;-57
2022/05/24 03:28:05;;;;;;;1.43;1.00;;;;;;;;;;5084932;28;20779;-57
2022/05/24 03:30:52;;;;;;;1.20;1.20;;;;;;;;;;5093583;28;20271;-57
2022/05/24 03:33:39;;;;;;;1.20;1.03;;;;;;;;;;5088508;28;20327;-57
2022/05/24 03:36:26;;;;;;;1.10;1.10;;;;;;;;;;5082190;28;20201;-58
2022/05/24 03:39:13;;;;;;;0.90;0.80;;;;;;;;;;5088218;28;20774;-57
2022/05/24 03:42:00;;;;;;;0.90;0.90;;;;;;;;;;5087692;28;20284;-57
2022/05/24 03:44:49;;;;;;;0.93;0.93;;;;;;;;;;5095201;28;20214;-57
2022/05/24 03:47:36;;;;;;;1.00;1.00;;;;;;;;;;5094307;28;20715;-56
2022/05/24 03:50:23;;;;;;;0.90;0.90;;;;;;;;;;5095972;28;20236;-57
2022/05/24 03:53:10;;;;;;;1.30;1.20;;;;;;;;;;5094778;28;20232;-57
2022/05/24 03:55:57;;;;;;;1.10;1.10;;;;;;;;;;5085969;28;20284;-58
2022/05/24 03:58:44;;;;;;;0.90;0.90;;;;;;;;;;5091139;28;20344;-57
2022/05/24 04:01:32;;;;;;;1.50;1.50;;;;;;;;;;5089560;28;20327;-57
2022/05/24 04:04:19;;;;;;;1.00;1.00;;;;;;;;;;5091479;28;20211;-58
2022/05/24 04:07:06;;;;;;;1.07;0.97;;;;;;;;;;5090257;28;20213;-58
2022/05/24 04:09:53;;;;;;;1.40;1.30;;;;;;;;;;5093454;28;20209;-57
2022/05/24 04:12:40;;;;;;;1.10;1.10;;;;;;;;;;5085601;28;20300;-57
2022/05/24 04:15:28;;;;;;;1.30;1.23;;;;;;;;;;5091366;28;20299;-58
2022/05/24 04:18:16;;;;;;;0.80;0.80;;;;;;;;;;5087940;28;20720;-57
2022/05/24 04:21:03;;;;;;;1.10;1.10;;;;;;;;;;5090981;28;20737;-57
2022/05/24 04:23:51;;;;;;;1.10;1.10;;;;;;;;;;5099620;28;20329;-57
2022/05/24 04:26:38;;;;;;;1.10;1.10;;;;;;;;;;5094760;28;20900;-57
2022/05/24 04:29:25;;;;;;;1.10;1.00;;;;;;;;;;5095628;28;20344;-57
2022/05/24 04:32:12;;;;;;;1.20;1.20;;;;;;;;;;5084395;28;20238;-57
2022/05/24 04:35:00;;;;;;;0.83;0.83;;;;;;;;;;5089536;28;20261;-57
2022/05/24 04:37:47;;;;;;;1.23;1.23;;;;;;;;;;5092105;28;20317;-57
2022/05/24 04:43:38;;;;;;;1.10;1.10;;;;;;;;;;5092966;28;20635;-56
2022/05/24 04:47:06;;;;;;;1.23;1.20;;;;;;;;;;5085385;28;20310;-57
2022/05/24 04:49:33;;;;;;;1.20;1.20;;;;;;;;;;5092110;28;20202;-57
2022/05/24 04:52:23;;;;;;;1.20;1.20;;;;;;;;;;5092748;28;20693;-57
2022/05/24 04:55:13;;;;;;;1.63;1.30;;;;;;;;;;5090697;28;20207;-58
2022/05/24 04:58:00;;;;;;;1.80;1.10;;;;;;;;;;5090121;28;20274;-57
2022/05/24 05:00:48;;;;;;;1.87;1.10;;;;;;;;;;5096036;28;20289;-57
2022/05/24 05:03:35;;;;;;;1.13;1.10;;;;;;;;;;5101502;28;20242;-57
2022/05/24 05:06:22;;;;;;;1.33;1.27;;;;;;;;;;5087390;28;20198;-57
2022/05/24 05:09:11;;;;;;;1.77;1.30;;;;;;;;;;5089502;28;20244;-57
2022/05/24 05:12:00;;;;;;;1.30;1.30;;;;;;;;;;5091895;28;20659;-57
2022/05/24 05:14:47;;;;;;;1.17;1.10;;;;;;;;;;5098037;28;20261;-57
2022/05/24 05:17:34;;;;;;;1.50;1.40;;;;;;;;;;5096421;28;20232;-57
2022/05/24 05:20:21;;;;;;;1.30;1.30;;;;;;;;;;5092034;28;20288;-57
2022/05/24 05:23:09;;;;;;;1.43;1.30;;;;;;;;;;5094487;28;20280;-57
2022/05/24 05:25:57;;;;;;;0.90;0.90;;;;;;;;;;5089168;28;20221;-66
2022/05/24 05:28:44;;;;;;;1.27;1.27;;;;;;;;;;5089037;28;20296;-57
2022/05/24 05:31:30;;;;;;;1.10;1.10;;;;;;;;;;5095969;28;20663;-58
2022/05/24 05:34:17;;;;;;;1.37;1.27;;;;;;;;;;5098100;28;20265;-56
2022/05/24 05:37:08;;;;;;;1.30;1.30;;;;;;;;;;5102259;28;20218;-57
2022/05/24 05:39:54;;;;;;;0.87;0.87;;;;;;;;;;5094709;28;20295;-58
2022/05/24 05:42:43;;;;;;;1.17;1.17;;;;;;;;;;5090530;28;21003;-58
2022/05/24 05:45:30;;;;;;;1.27;1.27;;;;;;;;;;5091491;28;20203;-57
2022/05/24 05:48:17;;;;;;;1.00;1.00;;;;;;;;;;5093939;28;20292;-56
2022/05/24 05:51:05;;;;;;;1.20;1.20;;;;;;;;;;5096395;28;20347;-57
2022/05/24 05:53:52;;;;;;;1.10;1.10;;;;;;;;;;5087594;28;20314;-57
2022/05/24 05:56:41;;;;;;;1.07;1.07;;;;;;;;;;5089429;28;20623;-58
2022/05/24 05:59:30;;;;;;;2.67;1.33;;;;;;;;;;5087172;28;20327;-57
2022/05/24 06:02:16;;;;;;;1.17;1.17;;;;;;;;;;5094107;28;20289;-57
2022/05/24 06:05:05;;;;;;;1.30;1.20;;;;;;;;;;5095397;28;20623;-57
2022/05/24 06:07:52;;;;;;;1.20;1.13;;;;;;;;;;5099167;28;20291;-57
2022/05/24 06:10:39;;;;;;;1.50;1.27;;;;;;;;;;5099643;28;20233;-57
2022/05/24 06:13:27;;;;;;;1.17;1.17;;;;;;;;;;5095928;28;20584;-58
2022/05/24 06:16:16;;;;;;;1.47;1.37;;;;;;;;;;5095138;28;20208;-57
2022/05/24 06:19:04;;;;;;;0.90;0.90;;;;;;;;;;5093155;28;20237;-57
2022/05/24 06:21:50;;;;;;;1.33;1.23;;;;;;;;;;5092730;28;20224;-57
2022/05/24 06:24:38;;;;;;;1.90;1.60;;;;;;;;;;5093011;28;20215;-58
2022/05/24 06:27:25;;;;;;;1.00;1.00;;;;;;;;;;5094954;28;20202;-57
2022/05/24 06:30:12;;;;;;;1.00;1.00;;;;;;;;;;5100175;28;20216;-57
2022/05/24 06:33:01;;;;;;;1.33;1.30;;;;;;;;;;5091655;28;20207;-58
2022/05/24 06:35:47;;;;;;;1.47;1.37;;;;;;;;;;5092319;28;20209;-57
2022/05/24 06:38:36;;;;;;;1.17;1.17;;;;;;;;;;5096594;28;20363;-57
2022/05/24 06:41:23;;;;;;;3.03;1.10;;;;;;;;;;5095357;28;20328;-57
2022/05/24 06:44:10;;;;;;;1.30;1.30;;;;;;;;;;5092541;28;20297;-57
2022/05/24 06:46:57;;;;;;;1.07;1.07;;;;;;;;;;5094459;28;20342;-58
2022/05/24 06:49:45;;;;;;;1.20;1.20;;;;;;;;;;5093348;28;20221;-57
2022/05/24 06:52:32;;;;;;;1.30;1.20;;;;;;;;;;5092302;28;20609;-57
2022/05/24 06:55:20;;;;;;;1.03;1.03;;;;;;;;;;5090472;28;20848;-57
2022/05/24 06:58:07;;;;;;;1.50;1.40;;;;;;;;;;5091887;28;20353;-56
2022/05/24 07:03:59;;;;;;;1.20;1.20;;;;;;;;;;5089729;28;20205;-57
2022/05/24 07:06:47;;;;;;;1.70;1.57;;;;;;;;;;5088473;28;20234;-57
2022/05/24 07:09:34;;;;;;;1.43;1.37;;;;;;;;;;5093430;28;20291;-57
2022/05/24 07:12:22;;;;;;;1.70;1.30;;;;;;;;;;5094599;28;20596;-57
2022/05/24 07:15:10;;;;;;;1.43;1.33;;;;;;;;;;5090595;28;20283;-57
2022/05/24 07:17:57;;;;;;;1.13;1.13;;;;;;;;;;5092044;28;20322;-57
2022/05/24 07:20:44;;;;;;;1.70;1.60;;;;;;;;;;5098419;28;20201;-56
2022/05/24 07:23:38;;;;;;;1.70;1.17;;;;;;;;;;5089334;28;20360;-58
2022/05/24 07:26:25;;;;;;;1.20;1.20;;;;;;;;;;5089815;28;20213;-57
2022/05/24 07:29:13;;;;;;;1.40;1.33;;;;;;;;;;5090536;28;20773;-57
2022/05/24 07:32:00;;;;;;;1.50;1.40;;;;;;;;;;5087881;28;20968;-57
2022/05/24 07:34:46;;;;;;;1.40;1.40;;;;;;;;;;5085176;28;20722;-57
2022/05/24 07:37:33;;;;;;;1.37;1.27;;;;;;;;;;5086609;28;20327;-57
2022/05/24 07:46:31;;;;;;;1.87;1.33;;;;;;;;;;5090917;28;20607;-57
2022/05/24 07:49:18;;;;;;;1.40;1.30;;;;;;;;;;5091501;28;20335;-57
2022/05/24 07:52:06;;;;;;;1.87;1.30;;;;;;;;;;5094378;28;20200;-57
2022/05/24 07:54:53;;;;;;;1.10;1.10;;;;;;;;;;5093461;28;20210;-57
2022/05/24 07:57:42;;;;;;;1.30;1.30;;;;;;;;;;5088699;28;20212;-57
2022/05/24 08:00:28;;;;;;;1.10;1.10;;;;;;;;;;5087170;28;20206;-57
2022/05/24 08:03:16;;;;;;;1.43;1.33;;;;;;;;;;5088553;28;20301;-58
2022/05/24 08:06:03;;;;;;;1.70;1.40;;;;;;;;;;5088212;28;20290;-56
2022/05/24 08:08:50;;;;;;;1.53;1.40;;;;;;;;;;5091034;28;20589;-57
2022/05/24 08:11:37;;;;;;;1.37;1.07;;;;;;;;;;5096889;28;20290;-57
2022/05/24 08:14:25;;;;;;;1.20;1.10;;;;;;;;;;5087810;28;20708;-57
2022/05/24 08:17:12;;;;;;;1.47;1.33;;;;;;;;;;5086264;28;20287;-57
2022/05/24 08:19:59;;;;;;;1.27;1.27;;;;;;;;;;5083508;28;20230;-57
2022/05/24 08:22:46;;;;;;;1.37;1.33;;;;;;;;;;5093977;28;20210;-56
2022/05/24 08:25:33;;;;;;;1.20;1.20;;;;;;;;;;5094779;28;20668;-57
2022/05/24 08:28:20;;;;;;;1.30;1.30;;;;;;;;;;5100326;28;20210;-57
2022/05/24 08:31:08;;;;;;;1.90;1.43;;;;;;;;;;5090459;28;20644;-56
2022/05/24 08:33:55;;;;;;;2.50;1.63;;;;;;;;;;5097045;28;20221;-57
2022/05/24 08:36:42;;;;;;;2.27;1.43;;;;;;;;;;5094353;28;20308;-57
2022/05/24 08:39:29;;;;;;;1.97;1.40;;;;;;;;;;5095538;28;20238;-56
2022/05/24 08:42:24;;;;;;;1.40;1.30;;;;;;;;;;5096265;28;20293;-57
2022/05/24 08:48:29;;;;;;;1.57;1.47;;;;;;;;;;5092195;28;20215;-57
2022/05/24 08:51:22;;;;;;;1.50;1.40;;;;;;;;;;5094200;28;20283;-56
2022/05/24 08:54:11;;;;;;;3.10;1.30;;;;;;;;;;5088258;28;20602;-57
2022/05/24 08:57:02;;;;;;;1.60;1.50;;;;;;;;;;5087521;28;20214;-57
2022/05/24 08:59:56;;;;;;;2.10;1.70;;;;;;;;;;5095141;28;20587;-57
2022/05/24 09:02:45;;;;;;;1.67;1.57;;;;;;;;;;5095072;28;20210;-56
2022/05/24 09:05:38;;;;;;;1.63;1.53;;;;;;;;;;5096331;28;20213;-57
2022/05/24 09:08:29;;;;;;;1.80;1.20;;;;;;;;;;5096303;28;20215;-57
2022/05/24 09:11:33;;;;;;;1.50;1.40;;;;;;;;;;5098015;28;20266;-57
2022/05/24 09:14:29;;;;;;;1.43;1.33;;;;;;;;;;5097714;28;20955;-56
2022/05/24 09:17:29;;;;;;;1.43;1.33;;;;;;;;;;5100654;28;20583;-60
2022/05/24 09:20:30;;;;;;;2.43;1.40;;;;;;;;;;5089878;28;20355;-58
2022/05/24 09:23:24;;;;;;;1.43;1.40;;;;;;;;;;5097242;28;20213;-56
2022/05/24 09:26:14;;;;;;;1.33;1.30;;;;;;;;;;5095958;28;20285;-57
2022/05/24 09:29:11;;;;;;;1.80;1.70;;;;;;;;;;5095761;28;20261;-57
2022/05/24 09:32:00;;;;;;;1.37;1.37;;;;;;;;;;5099834;28;20572;-56
2022/05/24 09:34:47;;;;;;;2.10;1.50;;;;;;;;;;5102201;28;20283;-56
2022/05/24 09:37:34;;;;;;;1.90;1.30;;;;;;;;;;5100951;28;20244;-56
2022/05/24 09:40:24;;;;;;;1.47;1.37;;;;;;;;;;5092945;28;20256;-57
2022/05/24 09:43:26;;;;;;;1.77;1.67;;;;;;;;;;5094616;28;20298;-57
2022/05/24 09:46:22;;;;;;;1.70;1.60;;;;;;;;;;5098505;28;20472;-57
2022/05/24 09:49:22;;;;;;;1.70;1.60;;;;;;;;;;5093523;28;20200;-57
2022/05/24 09:52:14;;;;;;;1.47;1.43;;;;;;;;;;5090884;28;20241;-57
2022/05/24 09:55:01;;;;;;;1.30;1.30;;;;;;;;;;5090934;28;20708;-57
2022/05/24 09:57:49;;;;;;;1.67;1.57;;;;;;;;;;5088747;28;20224;-57
2022/05/24 10:00:49;;;;;;;1.93;1.80;;;;;;;;;;5099501;28;20228;-57
2022/05/24 10:03:38;;;;;;;1.50;1.40;;;;;;;;;;5095333;28;20231;-57
2022/05/24 10:06:28;;;;;;;1.47;1.47;;;;;;;;;;5098596;28;20293;-57
2022/05/24 10:09:33;;;;;;;1.77;1.67;;;;;;;;;;5098416;28;20293;-57
2022/05/24 10:12:28;;;;;;;1.60;1.50;;;;;;;;;;5095097;28;20218;-57
2022/05/24 10:15:31;;;;;;;1.60;1.50;;;;;;;;;;5094823;28;20211;-57
2022/05/24 10:18:32;;;;;;;1.57;1.47;;;;;;;;;;5093355;28;20676;-56
2022/05/24 10:21:24;;;;;;;1.60;1.50;;;;;;;;;;5093105;28;20710;-57
2022/05/24 10:24:29;;;;;;;2.27;1.90;;;;;;;;;;5092956;28;20201;-57
2022/05/24 10:27:24;;;;;;;1.90;1.47;;;;;;;;;;5091790;28;20301;-57
2022/05/24 10:30:19;;;;;;;1.20;1.20;;;;;;;;;;5092542;28;20223;-57
2022/05/24 10:39:46;;;;;;;1.60;1.50;;;;;;;;;;5093901;28;20234;-57
2022/05/24 10:42:49;;;;;;;1.67;1.57;;;;;;;;;;5103033;28;20252;-57
2022/05/24 10:45:55;;;;;;;1.60;1.60;;;;;;;;;;5098054;28;20254;-57
2022/05/24 10:48:48;;;;;;;1.70;1.60;;;;;;;;;;5089141;28;20257;-56
2022/05/24 10:51:38;;;;;;;1.60;1.50;;;;;;;;;;5098215;28;20214;-56
2022/05/24 10:54:36;;;;;;;1.80;1.70;;;;;;;;;;5093884;28;20309;-58
2022/05/24 10:57:29;;;;;;;1.67;1.57;;;;;;;;;;5095804;28;20242;-57
2022/05/24 11:00:19;;;;;;;1.97;1.87;;;;;;;;;;5087303;28;20361;-57
2022/05/24 11:03:16;;;;;;;2.60;1.77;;;;;;;;;;5096264;28;20234;-57
2022/05/24 11:06:16;;;;;;;1.83;1.30;;;;;;;;;;5096407;28;20215;-57
2022/05/24 11:09:06;;;;;;;1.70;1.50;;;;;;;;;;5096497;28;20209;-57
2022/05/24 11:11:59;;;;;;;1.70;1.60;;;;;;;;;;5092715;28;20256;-57
2022/05/24 11:14:50;;;;;;;1.47;1.47;;;;;;;;;;5094431;28;20652;-57
2022/05/24 11:17:37;;;;;;;1.80;1.70;;;;;;;;;;5097146;28;20206;-56
2022/05/24 11:20:34;;;;;;;1.60;1.50;;;;;;;;;;5093315;28;20223;-57
2022/05/24 11:23:27;;;;;;;1.83;1.73;;;;;;;;;;5087843;28;20216;-56
2022/05/24 11:26:18;;;;;;;1.77;1.57;;;;;;;;;;5091826;28;20729;-57
2022/05/24 11:29:14;;;;;;;1.70;1.43;;;;;;;;;;5092222;28;20214;-57
2022/05/24 11:32:03;;;;;;;1.90;1.80;;;;;;;;;;5093908;28;20220;-56
2022/05/24 11:34:58;;;;;;;1.83;1.50;;;;;;;;;;5094073;28;20378;-57
2022/05/24 11:37:47;;;;;;;1.60;1.50;;;;;;;;;;5093885;28;20210;-57
2022/05/24 11:40:39;;;;;;;1.50;1.50;;;;;;;;;;5093111;28;20316;-56
2022/05/24 11:44:00;;;;;;;2.13;2.03;;;;;;;;;;5091169;28;20229;-58
2022/05/24 11:46:49;;;;;;;1.93;1.83;;;;;;;;;;5091467;28;20233;-57
2022/05/24 11:49:58;;;;;;;1.90;1.80;;;;;;;;;;5090567;28;20203;-57
2022/05/24 11:53:01;;;;;;;1.70;1.60;;;;;;;;;;5092699;28;20224;-59
2022/05/24 11:56:11;;;;;;;1.50;1.50;;;;;;;;;;5095205;28;20240;-59
2022/05/24 11:59:00;;;;;;;2.33;1.67;;;;;;;;;;5091567;28;20580;-59
2022/05/24 12:01:49;;;;;;;1.30;1.30;;;;;;;;;;5088861;28;20238;-59
2022/05/24 12:08:06;;;;;;;1.73;1.63;;;;;;;;;;5092357;28;20762;-59
2022/05/24 12:11:10;;;;;;;1.97;1.87;;;;;;;;;;5089733;28;20213;-58
2022/05/24 12:14:11;;;;;;;1.70;1.60;;;;;;;;;;5088308;28;20381;-58
2022/05/24 12:17:14;;;;;;;1.80;1.70;;;;;;;;;;5095077;28;20335;-58
2022/05/24 12:20:04;;;;;;;1.83;1.73;;;;;;;;;;5093606;28;20233;-59
2022/05/24 12:23:17;;;;;;;1.50;1.50;;;;;;;;;;5085262;28;20215;-59
2022/05/24 12:26:07;;;;;;;1.77;1.67;;;;;;;;;;5099094;28;20782;-58
2022/05/24 12:28:56;;;;;;;1.90;1.80;;;;;;;;;;5098820;28;20198;-59
2022/05/24 12:31:43;;;;;;;1.50;1.40;;;;;;;;;;5088196;28;20275;-58
2022/05/24 12:34:32;;;;;;;1.90;1.80;;;;;;;;;;5092191;28;20703;-58
2022/05/24 12:37:25;;;;;;;1.50;1.40;;;;;;;;;;5093416;28;20339;-58
2022/05/24 12:40:17;;;;;;;1.53;1.50;;;;;;;;;;5092031;28;20308;-59
2022/05/24 12:43:15;;;;;;;1.37;1.37;;;;;;;;;;5091410;28;20210;-58
2022/05/24 12:46:02;;;;;;;1.30;1.30;;;;;;;;;;5090484;28;20361;-59
2022/05/24 12:48:50;;;;;;;1.70;1.60;;;;;;;;;;5092897;28;20310;-59
2022/05/24 12:51:39;;;;;;;1.60;1.50;;;;;;;;;;5090600;28;20201;-59
2022/05/24 12:54:31;;;;;;;1.50;1.40;;;;;;;;;;5095958;28;20356;-59
2022/05/24 12:57:21;;;;;;;1.80;1.70;;;;;;;;;;5090218;28;20244;-58
2022/05/24 13:00:14;;;;;;;1.80;1.70;;;;;;;;;;5091894;28;20279;-59
2022/05/24 13:03:01;;;;;;;1.40;1.40;;;;;;;;;;5092618;28;20218;-59
2022/05/24 13:05:54;;;;;;;1.63;1.60;;;;;;;;;;5093304;28;20653;-58
2022/05/24 13:08:40;;;;;;;1.50;1.40;;;;;;;;;;5088331;28;20351;-59
2022/05/24 13:11:28;;;;;;;1.43;1.33;;;;;;;;;;5088770;28;20282;-58
2022/05/24 13:14:34;;;;;;;1.20;1.20;;;;;;;;;;5093591;28;20201;-58
2022/05/24 13:17:24;;;;;;;1.10;1.10;;;;;;;;;;5092397;28;20290;-58
2022/05/24 13:20:24;;;;;;;1.50;1.37;;;;;;;;;;5096851;28;20305;-59
2022/05/24 13:23:25;;;;;;;1.10;1.10;;;;;;;;;;5091816;28;20705;-58
2022/05/24 13:26:19;;;;;;;1.00;1.00;;;;;;;;;;5092558;28;20300;-58
2022/05/24 13:29:24;;;;;;;1.10;1.10;;;;;;;;;;5091528;28;20219;-59
2022/05/24 13:35:18;;;;;;;1.20;1.20;;;;;;;;;;5099736;28;20208;-58
2022/05/24 13:38:05;;;;;;;1.10;1.10;;;;;;;;;;5090938;28;20293;-58
2022/05/24 13:40:58;;;;;;;1.33;1.23;;;;;;;;;;5089820;28;20341;-59
2022/05/24 13:43:46;;;;;;;1.00;1.00;;;;;;;;;;5089945;28;20277;-59
2022/05/24 13:46:48;;;;;;;1.13;1.10;;;;;;;;;;5094721;28;20534;-60
2022/05/24 13:49:43;;;;;;;1.17;1.17;;;;;;;;;;5090883;28;20235;-59
2022/05/24 13:52:37;;;;;;;1.47;1.37;;;;;;;;;;5089819;28;20230;-58
2022/05/24 13:55:29;;;;;;;1.00;1.00;;;;;;;;;;5092997;28;20214;-59
2022/05/24 13:58:32;;;;;;;1.00;1.00;;;;;;;;;;5089663;28;20217;-58
2022/05/24 14:01:28;;;;;;;1.33;1.23;;;;;;;;;;5091932;28;20732;-59
2022/05/24 14:04:18;;;;;;;1.10;1.10;;;;;;;;;;5094630;28;20615;-58
2022/05/24 14:07:05;;;;;;;1.17;1.10;;;;;;;;;;5094596;28;20218;-58
2022/05/24 14:09:54;;;;;;;0.77;0.77;;;;;;;;;;5098311;28;20227;-60
2022/05/24 14:12:42;;;;;;;1.10;1.10;;;;;;;;;;5087231;28;20286;-58
2022/05/24 14:15:29;;;;;;;1.27;1.20;;;;;;;;;;5091288;28;20211;-60
2022/05/24 14:18:16;;;;;;;0.80;0.80;;;;;;;;;;5093313;28;20772;-59
2022/05/24 14:21:04;;;;;;;0.83;0.83;;;;;;;;;;5094346;28;20225;-58
2022/05/24 14:23:51;;;;;;;0.93;0.93;;;;;;;;;;5093772;28;20203;-59
2022/05/24 14:26:40;;;;;;;0.83;0.83;;;;;;;;;;5090260;28;20889;-59
2022/05/24 14:29:30;;;;;;;1.00;1.00;;;;;;;;;;5092199;28;20385;-58
2022/05/24 14:32:17;;;;;;;0.80;0.80;;;;;;;;;;5094418;28;20541;-59
2022/05/24 14:35:04;;;;;;;0.80;0.80;;;;;;;;;;5089972;28;20289;-59
2022/05/24 14:37:51;;;;;;;0.97;0.97;;;;;;;;;;5091312;28;20256;-59
2022/05/24 14:40:38;;;;;;;0.90;0.90;;;;;;;;;;5090849;28;20225;-58
2022/05/24 14:43:28;;;;;;;0.90;0.90;;;;;;;;;;5094242;28;20313;-58
2022/05/24 14:46:16;;;;;;;1.20;0.97;;;;;;;;;;5091044;28;20698;-58
2022/05/24 14:49:04;;;;;;;0.87;0.87;;;;;;;;;;5090285;28;20239;-58
2022/05/24 14:51:54;;;;;;;0.80;0.80;;;;;;;;;;5091920;28;20202;-59
2022/05/24 14:54:43;;;;;;;0.70;0.70;;;;;;;;;;5093323;28;20237;-59
2022/05/24 14:57:30;;;;;;;0.80;0.80;;;;;;;;;;5092536;28;20238;-59
2022/05/24 15:00:21;;;;;;;0.90;0.90;;;;;;;;;;5089416;28;20222;-59
2022/05/24 15:03:08;;;;;;;0.77;0.77;;;;;;;;;;5099127;28;20265;-58
2022/05/24 15:05:54;;;;;;;0.70;0.70;;;;;;;;;;5096606;28;20236;-59
2022/05/24 15:17:59;;;;;;;0.77;0.77;;;;;;;;;;5096531;28;20212;-58
2022/05/24 15:20:47;;;;;;;0.67;0.67;;;;;;;;;;5094630;28;20221;-58
2022/05/24 15:23:34;;;;;;;0.80;0.80;;;;;;;;;;5090461;28;20287;-58
2022/05/24 15:26:25;;;;;;;0.60;0.60;;;;;;;;;;5093013;28;20220;-58
2022/05/24 15:29:12;;;;;;;0.60;0.60;;;;;;;;;;5091186;28;20241;-59
2022/05/24 15:32:00;;;;;;;0.40;0.40;;;;;;;;;;5091648;28;20202;-59
2022/05/24 15:34:48;;;;;;;0.77;0.77;;;;;;;;;;5092978;28;20233;-59
2022/05/24 15:37:35;;;;;;;0.80;0.80;;;;;;;;;;5087069;28;20289;-59
2022/05/24 15:40:22;;;;;;;0.50;0.50;;;;;;;;;;5088918;28;20206;-58
2022/05/24 15:43:13;;;;;;;0.50;0.50;;;;;;;;;;5094431;28;20240;-59
2022/05/24 15:46:00;;;;;;;0.70;0.70;;;;;;;;;;5086986;28;20697;-58
2022/05/24 15:48:47;;;;;;;0.50;0.50;;;;;;;;;;5090701;28;20289;-56
2022/05/24 15:51:35;;;;;;;0.63;0.63;;;;;;;;;;5093408;28;20206;-56
2022/05/24 15:54:22;;;;;;;0.60;0.60;;;;;;;;;;5094845;28;20323;-58
2022/05/24 15:57:09;;;;;;;0.70;0.70;;;;;;;;;;5093205;28;20582;-59
2022/05/24 15:59:56;;;;;;;0.57;0.50;;;;;;;;;;5089291;28;20291;-58
2022/05/24 16:02:43;;;;;;;0.60;0.60;;;;;;;;;;5091973;28;20700;-58
2022/05/24 16:11:48;;;;;;;0.53;0.53;;;;;;;;;;5092459;28;20587;-58
2022/05/24 16:14:40;;;;;;;0.77;0.77;;;;;;;;;;5094132;28;20209;-59
2022/05/24 16:17:27;;;;;;;0.60;0.60;;;;;;;;;;5088580;28;20207;-60
2022/05/24 16:20:15;;;;;;;0.60;0.60;;;;;;;;;;5090672;28;20294;-59
2022/05/24 16:23:03;;;;;;;0.50;0.50;;;;;;;;;;5093381;28;20206;-59
2022/05/24 16:25:51;;;;;;;0.70;0.70;;;;;;;;;;5093686;28;20630;-59
2022/05/24 16:28:38;;;;;;;1.03;0.80;;;;;;;;;;5091935;28;20223;-59
2022/05/24 16:31:25;;;;;;;0.80;0.80;;;;;;;;;;5088921;28;20233;-59
2022/05/24 16:34:12;;;;;;;0.60;0.60;;;;;;;;;;5090186;28;20198;-59
2022/05/24 16:36:59;;;;;;;0.80;0.80;;;;;;;;;;5092188;28;20618;-59
2022/05/24 16:39:46;;;;;;;0.70;0.70;;;;;;;;;;5094440;28;20619;-58
2022/05/24 16:42:34;;;;;;;0.70;0.60;;;;;;;;;;5091516;28;20749;-59
2022/05/24 16:45:21;;;;;;;0.67;0.67;;;;;;;;;;5089444;28;20293;-59
2022/05/24 16:48:14;;;;;;;0.83;0.83;;;;;;;;;;5095542;28;20264;-60
2022/05/24 16:51:04;;;;;;;0.70;0.70;;;;;;;;;;5097940;28;20229;-59
2022/05/24 16:53:53;;;;;;;0.77;0.77;;;;;;;;;;5092511;28;20234;-58
2022/05/24 16:59:46;;;;;;;1.00;1.00;;;;;;;;;;5097484;28;20210;-58
2022/05/24 17:02:33;;;;;;;0.70;0.70;;;;;;;;;;5101021;28;20268;-58
2022/05/24 17:05:20;;;;;;;0.50;0.50;;;;;;;;;;5097958;28;20362;-58
2022/05/24 17:08:10;;;;;;;0.80;0.80;;;;;;;;;;5098246;28;20282;-58
2022/05/24 17:10:58;;;;;;;0.70;0.70;;;;;;;;;;5103033;28;20220;-58
2022/05/24 17:13:45;;;;;;;0.80;0.80;;;;;;;;;;5097840;28;20658;-59
2022/05/24 17:16:34;;;;;;;1.10;1.00;;;;;;;;;;5093666;28;20246;-58
2022/05/24 17:19:20;;;;;;;0.80;0.80;;;;;;;;;;5092360;28;20749;-59
2022/05/24 17:22:07;;;;;;;1.10;1.00;;;;;;;;;;5091632;28;20686;-59
2022/05/24 17:24:54;;;;;;;1.00;0.80;;;;;;;;;;5094420;28;20291;-59
2022/05/24 17:27:41;;;;;;;0.90;0.90;;;;;;;;;;5088604;28;20228;-59
2022/05/24 17:30:30;;;;;;;1.00;1.00;;;;;;;;;;5093592;28;20246;-59
2022/05/24 17:33:22;;;;;;;0.83;0.83;;;;;;;;;;5095164;28;20592;-58
2022/05/24 17:36:09;;;;;;;0.90;0.90;;;;;;;;;;5092491;28;20209;-59
2022/05/24 17:38:56;;;;;;;0.87;0.87;;;;;;;;;;5096201;28;20244;-59
2022/05/24 17:41:43;;;;;;;0.80;0.80;;;;;;;;;;5089998;28;20563;-58
2022/05/24 17:44:31;;;;;;;1.10;1.00;;;;;;;;;;5094432;28;20241;-58
2022/05/24 17:47:18;;;;;;;1.07;1.00;;;;;;;;;;5096469;28;20240;-59
2022/05/24 17:50:08;;;;;;;1.10;1.00;;;;;;;;;;5093598;28;20216;-59
2022/05/24 17:52:54;;;;;;;1.27;1.10;;;;;;;;;;5093028;28;20291;-59
2022/05/24 17:55:42;;;;;;;1.30;1.20;;;;;;;;;;5093010;28;20245;-58
2022/05/24 17:58:29;;;;;;;1.30;1.20;;;;;;;;;;5096589;28;20216;-59
2022/05/24 18:01:16;;;;;;;1.00;0.87;;;;;;;;;;5092783;28;20270;-58